Terminal Aerodrome Forecast
Issued by NWS Cleveland, OH

Home | Current Version | Previous Version | Graphics & Text | Print | Product List | Glossary On
Versions: 1 2 3 4 5 6 7 8 9 10 11 12 13 14 15 16 17 18 19 20 21 22
281
FTUS41 KCLE 181451 AAA
TAFCLE
TAF AMD
KCLE 181451Z 1815/1918 20008KT P6SM SKC
     FM181700 21010G18KT P6SM SKC
     FM190000 19008KT P6SM SKC
     FM191600 22014G20KT P6SM FEW250=

USA.gov is the U.S. government's official web portal to all federal, state and local government web resources and services.